KLGA Airport Information

Runway Information
Runway 04 Length 7000 ft width 150 ft
Elevation 22 ft Threshold 0 ft Heading 32
Runway 22 Length 7000 ft Width 150 ft
Elevation 13 ft Threshold 0 ft Heading 212
Runway 13 Length 7000 ft width 150 ft
Elevation 13 ft Threshold 0 ft Heading 122
Runway 31 Length 7000 ft Width 150 ft
Elevation 8 ft Threshold 0 ft Heading 302
Airport Frequencies
Type APP Name NEW YORK A Frequency 118 MHZ
Type APP Name NEW YORK A Frequency 132.7 MHZ
Type ATIS Name ATIS Frequency 125.95 MHZ
Type CLD Name CLNC DEL Frequency 121.875 MHZ
Type DEP Name NEW YORK D Frequency 120.4 MHZ
Type GND Name GND Frequency 121.7 MHZ
Type TWR Name TWR Frequency 118.7 MHZ
Type UNIC Name UNICOM Frequency 122.95 MHZ
Airport Navaids
Type NDB Name Peths Frequency 332 KHZ
Type VOR-DME Name La Guardia Frequency 113100 KHZ
Type NDB Name Orchy Frequency 385 KHZ
Airport Weather Information & NOTAM
KLGA 280351Z 27018G29KT 10SM BKN055 01/M13 A2981 RMK AO2 PK WND 28036/0312 SLP095 T0006113